Terminal Aerodrome Forecast
Issued by NWS Sterling, VA

Current Version | Previous Version | Text Only | Print | Product List | Glossary Off
Versions: 1 2 3 4 5 6 7 8 9 10 11 12 13 14 15 16 17 18 19 20 21 22 23 24 25

000
FTUS41 KLWX 270837 AAB
TAFDCA
TAF AMD
KDCA 270837Z 2709/2806 18008KT P6SM BKN020 OVC060
      TEMPO 2710/2714 BKN015
     FM271400 18009KT P6SM SCT020 BKN090
     FM271900 21012KT 6SM -SHRA VCTS BKN040CB
     FM272300 19007KT P6SM BKN200=

USA.gov is the U.S. government's official web portal to all federal, state and local government web resources and services.